Алатырь

Карта отелей и гостиниц, располагающихся рядом с аэропортом Алатырь :

Алатырь Чувашия 54° 49' 10.02" N, 46° 34' 35.22" E
Алатырь Чувашия 54° 49' 10.02" N, 46° 34' 35.22" E
Код аэродрома ИКАО
HB5X
Код аэродрома RU
ХБ5Ь
Координаты
N54.81945° E046.57645°
Превышение над уровнем моря
169
Основная полоса
14/32
Курс магнитный
143,8/323,8
Длина основной ВПП
45
Ширина основной ВПП
10
Покрытие основной ВПП
Нетвёрдое (грунт)
Освещение ВПП
Нет
Тип: 
Вертодром
Класс аэродрома: 
Принадлежность: 
ГА
Статус: 
Недействующий
Сайт: 
E-mail аэродрома: 
Страна: 
Россия
Регион: 
Чувашия
Город: 
Дополнительная информация: 

Найти трансфер

С помощью этой формы Вы можете найти трансфер из аэропорта Алатырь в город, аэропорт или вокзал:

Карта места

Javascript is required to view this map.

Погода в аэропортах:

Авиационная погода в Ханты-Мансийске

Регион: 
Погода METAR: 
USHH 171330Z 02002MPS 320V060 1700 R24/1500D SHSN BKN003CB M01/M01 Q1013 R24/190060 TEMPO 0500 +SHSN BKN002 OVC010CB
Время наблюдения
2021-04-17T13:30:00Z
Температура C
-1.0
Точка росы
-1.0
Направление ветра
20
Скорость ветра (узлы)
4
Метео видимость
1.06
Явления погоды
SHSN
Условия полета
LIFR
Аэропорт подробнее: 

Авиационная погода в Полярном

Регион: 
Погода METAR: 
UERP 171400Z 29006G12MPS 3900 -SHSN BLSN BKN015CB OVC100 M13/M15 Q0992 NOSIG RMK QFE700
Время наблюдения
2021-04-17T14:00:00Z
Температура C
-13.0
Точка росы
-15.0
Направление ветра
290
Скорость ветра (узлы)
12
Метео видимость
2.42
Явления погоды
-SHSN BLSN
Условия полета
IFR
Аэропорт подробнее: 

Авиационная погода в Алматы

Регион: 
Погода METAR: 
UAAA 171330Z 21002MPS 5000 FU SCT050CB BKN100 19/02 Q1017 R23L/CLRD65 NOSIG
Время наблюдения
2021-04-17T13:30:00Z
Температура C
19.0
Точка росы
2.0
Направление ветра
210
Скорость ветра (узлы)
4
Метео видимость
3.11
Явления погоды
FU
Условия полета
MVFR
Аэропорт подробнее: 

Авиационная погода в Ботсфьорде

Регион: 
Погода METAR: 
ENBS 161920Z 27037G47KT 9999 VCSH SCT020 SCT041 03/01 Q1023
Время наблюдения
2021-04-16T19:20:00Z
Температура C
3.0
Точка росы
1.0
Направление ветра
270
Скорость ветра (узлы)
37
Метео видимость
6.21
Явления погоды
VCSH
Условия полета
VFR